createdAt,value
2023-04-17T00:00:00.186Z,99.9
2023-04-17T00:05:00.108Z,99.9
2023-04-17T00:10:00.204Z,99.9
2023-04-17T00:15:00.148Z,99.9
2023-04-17T00:20:00.187Z,99.9
2023-04-17T00:25:00.118Z,99.9
2023-04-17T00:30:00.171Z,99.9
2023-04-17T00:35:00.201Z,99.9
2023-04-17T00:40:00.146Z,99.9
2023-04-17T00:45:00.142Z,99.9
2023-04-17T00:50:00.210Z,99.9
2023-04-17T00:55:00.256Z,99.9
2023-04-17T01:00:00.229Z,99.9
2023-04-17T01:05:00.120Z,99.9
2023-04-17T01:10:00.183Z,99.9
2023-04-17T01:15:00.151Z,99.9
2023-04-17T01:20:00.231Z,99.9
2023-04-17T01:25:00.129Z,99.9
2023-04-17T01:30:00.149Z,99.9
2023-04-17T01:35:00.246Z,99.9
2023-04-17T01:40:00.157Z,99.9
2023-04-17T01:45:00.138Z,99.9
2023-04-17T01:50:00.159Z,99.9
2023-04-17T01:55:00.153Z,99.9
2023-04-17T02:00:00.188Z,99.9
2023-04-17T02:05:00.147Z,99.9
2023-04-17T02:10:00.185Z,99.9
2023-04-17T02:15:00.122Z,99.9
2023-04-17T02:20:00.192Z,99.9
2023-04-17T02:25:00.121Z,99.9
2023-04-17T02:30:00.175Z,99.9
2023-04-17T02:35:00.139Z,99.9
2023-04-17T02:40:00.157Z,99.9
2023-04-17T02:45:00.155Z,99.9
2023-04-17T02:50:00.283Z,99.9
2023-04-17T02:55:00.140Z,99.9
2023-04-17T03:00:00.130Z,99.9
2023-04-17T03:05:00.153Z,99.9
2023-04-17T03:10:00.143Z,99.9
2023-04-17T03:15:00.106Z,99.9
2023-04-17T03:20:00.157Z,99.9
2023-04-17T03:25:00.140Z,99.9
2023-04-17T03:30:00.224Z,99.9
2023-04-17T03:35:00.183Z,99.9
2023-04-17T03:40:00.227Z,99.9
2023-04-17T03:45:00.119Z,99.9
2023-04-17T03:50:00.173Z,99.9
2023-04-17T03:55:00.124Z,99.9
2023-04-17T04:00:00.173Z,99.9
2023-04-17T04:05:00.163Z,99.9
2023-04-17T04:10:00.241Z,99.9
2023-04-17T04:15:00.135Z,99.9
2023-04-17T04:20:00.123Z,99.9
2023-04-17T04:25:00.155Z,99.9
2023-04-17T04:30:00.187Z,99.9
2023-04-17T04:35:00.155Z,99.9
2023-04-17T04:40:00.146Z,99.9
2023-04-17T04:45:00.113Z,99.9
2023-04-17T04:50:00.137Z,99.9
2023-04-17T04:55:00.142Z,99.9
2023-04-17T05:00:00.151Z,99.9
2023-04-17T05:05:00.209Z,99.9
2023-04-17T05:10:00.160Z,99.9
2023-04-17T05:15:00.124Z,99.9
2023-04-17T05:20:00.096Z,99.9
2023-04-17T05:25:00.140Z,99.9
2023-04-17T05:30:00.185Z,99.9
2023-04-17T05:35:00.149Z,99.9
2023-04-17T05:40:00.131Z,99.9
2023-04-17T05:45:00.137Z,99.9
2023-04-17T05:50:00.264Z,99.9
2023-04-17T05:55:00.139Z,99.9
2023-04-17T06:00:00.187Z,99.9
2023-04-17T06:05:00.334Z,99.9
2023-04-17T06:10:00.158Z,99.9
2023-04-17T06:15:00.162Z,99.9
2023-04-17T06:20:00.171Z,99.9
2023-04-17T06:25:00.142Z,99.9
2023-04-17T06:30:00.211Z,99.9
2023-04-17T06:35:00.115Z,99.9
2023-04-17T06:40:00.124Z,99.9
2023-04-17T06:45:00.126Z,99.9
2023-04-17T06:50:00.339Z,99.9
2023-04-17T06:55:00.117Z,99.9
2023-04-17T07:00:00.174Z,99.9
2023-04-17T07:05:00.153Z,99.9
2023-04-17T07:10:00.189Z,99.9
2023-04-17T07:15:00.100Z,99.9
2023-04-17T07:20:00.165Z,99.9
2023-04-17T07:25:00.134Z,99.9
2023-04-17T07:30:00.190Z,99.9
2023-04-17T07:35:00.157Z,99.9
2023-04-17T07:40:00.131Z,99.9
2023-04-17T07:45:00.114Z,99.9
2023-04-17T07:50:00.184Z,99.9
2023-04-17T07:55:00.165Z,99.9
2023-04-17T08:00:00.162Z,99.9
2023-04-17T08:05:00.266Z,99.9
2023-04-17T08:10:00.165Z,99.9
2023-04-17T08:15:00.112Z,99.9
2023-04-17T08:20:00.113Z,99.9
2023-04-17T08:25:00.155Z,99.9
2023-04-17T08:30:00.161Z,99.9
2023-04-17T08:35:00.151Z,99.9
2023-04-17T08:40:00.127Z,99.9
2023-04-17T08:45:00.111Z,99.9
2023-04-17T08:50:00.170Z,99.9
2023-04-17T08:55:00.133Z,99.9
2023-04-17T09:00:00.128Z,99.9
2023-04-17T09:05:00.393Z,99.9
2023-04-17T09:10:00.179Z,99.9
2023-04-17T09:15:00.146Z,99.9
2023-04-17T09:20:00.173Z,99.9
2023-04-17T09:25:00.173Z,99.9
2023-04-17T09:30:00.256Z,99.9
2023-04-17T09:35:00.174Z,99.9
2023-04-17T09:40:00.135Z,99.9
2023-04-17T09:45:00.110Z,99.4
2023-04-17T09:50:00.248Z,98.9
2023-04-17T09:55:00.135Z,97.3
2023-04-17T10:00:00.120Z,97.8
2023-04-17T10:05:00.138Z,97.6
2023-04-17T10:10:00.200Z,97.6
2023-04-17T10:15:00.141Z,97.4
2023-04-17T10:20:00.170Z,96
2023-04-17T10:25:00.143Z,96.7
2023-04-17T10:30:00.164Z,97.2
2023-04-17T10:35:00.130Z,96.6
2023-04-17T10:40:00.154Z,95.7
2023-04-17T10:45:00.166Z,95.4
2023-04-17T10:50:00.329Z,96
2023-04-17T10:55:00.179Z,95
2023-04-17T11:00:00.199Z,95.6
2023-04-17T11:05:00.303Z,92.5
2023-04-17T11:10:00.175Z,90.4
2023-04-17T11:15:00.156Z,92.1
2023-04-17T11:20:00.152Z,92.9
2023-04-17T11:25:00.144Z,93.5
2023-04-17T11:30:00.177Z,93.1
2023-04-17T11:35:00.113Z,92.2
2023-04-17T11:40:00.148Z,92.7
2023-04-17T11:45:00.863Z,92.7
2023-04-17T11:50:00.172Z,93.2
2023-04-17T11:55:00.166Z,92.7
2023-04-17T12:00:00.214Z,93.2
2023-04-17T12:05:00.263Z,93
2023-04-17T12:10:00.184Z,92.4
2023-04-17T12:15:00.162Z,91.5
2023-04-17T12:20:00.144Z,90.3
2023-04-17T12:25:00.241Z,85.3
2023-04-17T12:30:00.198Z,86.5
2023-04-17T12:35:00.165Z,87.7
2023-04-17T12:40:00.127Z,89.7
2023-04-17T12:45:00.138Z,88.1
2023-04-17T12:50:00.200Z,81.2
2023-04-17T12:55:00.198Z,79.8
2023-04-17T13:00:00.214Z,82.8
2023-04-17T13:05:00.154Z,78.2
2023-04-17T13:10:00.216Z,76.8
2023-04-17T13:15:00.164Z,79.8
2023-04-17T13:20:00.139Z,79.5
2023-04-17T13:25:00.305Z,79.5
2023-04-17T13:30:00.149Z,78.7
2023-04-17T13:35:00.112Z,78.3
2023-04-17T13:40:00.186Z,76
2023-04-17T13:45:00.141Z,77.5
2023-04-17T13:50:00.132Z,78.2
2023-04-17T13:55:00.191Z,77.1
2023-04-17T14:00:00.107Z,76.6
2023-04-17T14:05:00.302Z,75.5
2023-04-17T14:10:00.152Z,75.1
2023-04-17T14:15:00.136Z,77
2023-04-17T14:20:00.153Z,78.1
2023-04-17T14:25:00.115Z,76.8
2023-04-17T14:30:01.309Z,76.7
2023-04-17T14:35:00.145Z,77
2023-04-17T14:40:00.208Z,78.3
2023-04-17T14:45:00.143Z,79.4
2023-04-17T14:50:00.286Z,77.9
2023-04-17T14:55:00.124Z,76.2
2023-04-17T15:00:00.274Z,77.1
2023-04-17T15:05:00.128Z,71.5
2023-04-17T15:10:00.347Z,68.7
2023-04-17T15:15:00.142Z,72.2
2023-04-17T15:20:00.118Z,75.4
2023-04-17T15:25:00.144Z,78.5
2023-04-17T15:30:00.198Z,80
2023-04-17T15:35:00.126Z,79.4
2023-04-17T15:40:00.164Z,78.9
2023-04-17T15:45:00.106Z,77.1
2023-04-17T15:50:00.328Z,75.8
2023-04-17T15:55:00.173Z,76.2
2023-04-17T16:00:00.204Z,77.5
2023-04-17T16:05:00.125Z,78
2023-04-17T16:10:00.172Z,77.7
2023-04-17T16:15:00.158Z,77.1
2023-04-17T16:20:00.193Z,77.2
2023-04-17T16:25:00.140Z,79.2
2023-04-17T16:30:00.239Z,81.2
2023-04-17T16:35:00.133Z,82.8
2023-04-17T16:40:00.138Z,84.1
2023-04-17T16:45:00.127Z,85.8
2023-04-17T16:50:00.185Z,86.2
2023-04-17T16:55:00.156Z,88.7
2023-04-17T17:00:00.150Z,89.4
2023-04-17T17:05:00.131Z,89.8
2023-04-17T17:10:00.155Z,90
2023-04-17T17:15:00.166Z,90.8
2023-04-17T17:20:00.149Z,91.3
2023-04-17T17:25:00.130Z,91.2
2023-04-17T17:30:00.707Z,91.5
2023-04-17T17:35:00.127Z,91.8
2023-04-17T17:40:00.110Z,91.7
2023-04-17T17:45:00.175Z,92.4
2023-04-17T17:50:00.137Z,93.5
2023-04-17T17:55:00.120Z,94.5
2023-04-17T18:00:00.231Z,94
2023-04-17T18:05:00.132Z,93.8
2023-04-17T18:10:00.159Z,93.8
2023-04-17T18:15:00.112Z,93.5
2023-04-17T18:20:00.175Z,93.8
2023-04-17T18:25:00.160Z,93.5
2023-04-17T18:30:00.170Z,92.6
2023-04-17T18:35:00.110Z,92.4
2023-04-17T18:40:00.152Z,93.1
2023-04-17T18:45:00.218Z,93.2
2023-04-17T18:50:00.148Z,93.6
2023-04-17T18:55:00.140Z,93.7
2023-04-17T19:00:00.119Z,94.1
2023-04-17T19:05:00.156Z,94
2023-04-17T19:10:00.137Z,94
2023-04-17T19:15:00.143Z,94.3
2023-04-17T19:20:00.160Z,94.4
2023-04-17T19:25:00.133Z,94.2
2023-04-17T19:30:00.237Z,94
2023-04-17T19:35:00.130Z,94.1
2023-04-17T19:40:00.485Z,94.6
2023-04-17T19:45:00.124Z,94.9
2023-04-17T19:50:00.207Z,95.6
2023-04-17T19:55:00.107Z,95.9
2023-04-17T20:00:00.221Z,96.5
2023-04-17T20:05:00.156Z,97
2023-04-17T20:10:00.155Z,96.7
2023-04-17T20:15:00.116Z,97.2
2023-04-17T20:20:00.133Z,97.8
2023-04-17T20:25:00.129Z,97.9
2023-04-17T20:30:00.195Z,97.8
2023-04-17T20:35:00.099Z,97.7
2023-04-17T20:40:00.188Z,97.2
2023-04-17T20:45:00.137Z,97.2
2023-04-17T20:50:00.164Z,97.1
2023-04-17T20:55:00.171Z,97.1
2023-04-17T21:00:00.166Z,97.1
2023-04-17T21:05:00.160Z,97.1
2023-04-17T21:10:00.195Z,97.4
2023-04-17T21:15:00.178Z,97.7
2023-04-17T21:20:00.129Z,98.2
2023-04-17T21:25:00.120Z,98.5
2023-04-17T21:30:00.288Z,98.5
2023-04-17T21:35:00.133Z,98.5
2023-04-17T21:40:00.143Z,98.5
2023-04-17T21:45:00.111Z,98.3
2023-04-17T21:50:00.381Z,98.2
2023-04-17T21:55:00.144Z,98.1
2023-04-17T22:00:00.154Z,98
2023-04-17T22:05:00.178Z,98
2023-04-17T22:10:00.168Z,98.3
2023-04-17T22:15:00.147Z,98.2
2023-04-17T22:20:00.208Z,98.3
2023-04-17T22:25:00.148Z,98.3
2023-04-17T22:30:00.204Z,98.5
2023-04-17T22:35:00.149Z,98.7
2023-04-17T22:40:00.210Z,99.2
2023-04-17T22:45:00.161Z,99.7
2023-04-17T22:50:00.250Z,99.9
2023-04-17T22:55:00.122Z,99.9
2023-04-17T23:00:00.213Z,99.9
2023-04-17T23:05:00.123Z,99.9
2023-04-17T23:10:00.162Z,99.9
2023-04-17T23:15:00.149Z,99.9
2023-04-17T23:20:00.132Z,99.9
2023-04-17T23:25:00.180Z,99.9
2023-04-17T23:30:00.201Z,99.9
2023-04-17T23:35:00.152Z,99.9
2023-04-17T23:40:00.180Z,99.9
2023-04-17T23:45:00.154Z,99.9
2023-04-17T23:50:00.189Z,99.9
2023-04-17T23:55:00.177Z,99.9
